Discovery — GLNE — position and weather

sailwx.info

Track history (hours):
 
Tides and Currents Weather Stations Pressure Air Temp Water Temp Dewpoint Dewpoint Depression Visibility Wind Speed Wind Dir Waves Ship Positions

Discovery

Last reported at 2013-Feb-27 14:31 UTC. Time now 2019-Sep-15 12:05 UTC.
Position N 51°06' E 003°44'.
Warning: this ship's position is years out of date!

Length 90.2 m; beam 14 m; draft 5.4 m.

Type: Other ship. MMSI: 233882000.

Date/timePositionNaut miles runAvg speedWind from/ knotsBaromVisibWave heightAir tempDewpointWater temp
2013-Feb-27 14:31N 51°06' E 003°44'1 1.0
2013-Feb-27 13:30N 51°07' E 003°45'7 7.3
2013-Feb-27 12:32N 51°14' E 003°48'6 6.1
2013-Feb-27 11:33N 51°20' E 003°49'3 2.7
2013-Feb-27 10:33N 51°21' E 003°46'9 8.9
2013-Feb-27 09:34N 51°25' E 003°33'1010.1
2013-Feb-27 08:33N 51°24' E 003°17'10 9.5
2013-Feb-27 07:29N 51°21' E 003°01'9 9.6
2013-Feb-27 06:33N 51°21' E 002°47'9 9.4
2013-Feb-27 05:33N 51°22' E 002°32'10 9.6
2013-Feb-27 04:33N 51°19' E 002°17'10 9.5
2013-Feb-27 03:33N 51°22' E 002°03'7 7.4
2013-Feb-27 02:33N 51°29' E 002°02'13 6.2
2013-Feb-27 00:24N 51°41' E 002°09'11 2.3
2013-Feb-26 19:33N 51°34' E 001°56'7 6.4
2013-Feb-26 18:31N 51°31' E 001°46'8 8.0
2013-Feb-26 17:33N 51°28' E 001°35'7 6.4
2013-Feb-26 16:31N 51°28' E 001°24'1313.2
2013-Feb-26 15:33N 51°29' E 001°04'1312.7
2013-Feb-26 14:33N 51°27' E 000°44'7 7.3
2013-Feb-26 13:33N 51°24' E 000°33'0 0.1
2013-Feb-26 12:32N 51°24' E 000°33'0 0.0
2013-Feb-26 06:31N 51°24' E 000°33'0 0.0
2013-Feb-26 05:31N 51°24' E 000°33'0 0.0
2013-Feb-26 04:31N 51°24' E 000°33'0 0.0
2013-Feb-26 03:31N 51°24' E 000°33'0 0.0
2013-Feb-26 02:31N 51°24' E 000°33'0 0.0
2013-Feb-26 01:31N 51°24' E 000°33'0 0.0
2013-Feb-26 00:28N 51°24' E 000°33'0 0.0
2013-Feb-25 23:31N 51°24' E 000°33'0 0.0
2013-Feb-25 22:31N 51°24' E 000°33'0 0.0
2013-Feb-25 19:16N 51°24' E 000°33'0 0.0
2013-Feb-25 17:04N 51°24' E 000°33'0 0.0
2013-Feb-25 16:25N 51°24' E 000°33'0 0.0
2013-Feb-25 15:04N 51°24' E 000°33'0 0.0
2013-Feb-25 14:22N 51°24' E 000°33'0 0.0
2013-Feb-25 13:31N 51°24' E 000°33'0 0.0
2013-Feb-25 12:19N 51°24' E 000°33'0 0.0
2013-Feb-25 11:13N 51°24' E 000°33'0 0.0
2013-Feb-25 10:31N 51°24' E 000°33'0 0.0
2013-Feb-25 09:31N 51°24' E 000°33'0 0.0
2013-Feb-25 08:31N 51°24' E 000°33'0 0.0
2013-Feb-25 06:31N 51°24' E 000°33'0 0.0
2013-Feb-25 05:31N 51°24' E 000°33'0 0.0
2013-Feb-25 04:31N 51°24' E 000°33'0 0.0
2013-Feb-25 03:31N 51°24' E 000°33'0 0.0
2013-Feb-25 02:31N 51°24' E 000°33'0 0.0
2013-Feb-25 01:31N 51°24' E 000°33'0 0.0
2013-Feb-25 00:31N 51°24' E 000°33'0 0.0
2013-Feb-24 23:07N 51°24' E 000°33'0 0.0
2013-Feb-24 22:25N 51°24' E 000°33'0 0.0
2013-Feb-24 19:10N 51°24' E 000°33'0 0.0
2013-Feb-24 18:28N 51°24' E 000°33'0 0.0
2013-Feb-24 17:28N 51°24' E 000°33'0 0.0
2013-Feb-24 16:31N 51°24' E 000°33'0 0.0
2013-Feb-24 15:31N 51°24' E 000°33'0 0.0
2013-Feb-24 14:31N 51°24' E 000°33'0 0.0
2013-Feb-24 13:19N 51°24' E 000°33'0 0.0
2013-Feb-24 12:22N 51°24' E 000°33'0 0.0
2013-Feb-24 10:31N 51°24' E 000°33'0 0.0
2013-Feb-24 09:28N 51°24' E 000°33'0 0.0
2013-Feb-24 08:31N 51°24' E 000°33'0 0.0
2013-Feb-24 07:31N 51°24' E 000°33'0 0.0
2013-Feb-24 06:28N 51°24' E 000°33'0 0.0
2013-Feb-24 05:31N 51°24' E 000°33'0 0.0
2013-Feb-24 04:28N 51°24' E 000°33'0 0.0
2013-Feb-24 03:31N 51°24' E 000°33'0 0.0
2013-Feb-24 02:31N 51°24' E 000°33'0 0.0
2013-Feb-24 01:31N 51°24' E 000°33'0 0.0
2013-Feb-24 00:31N 51°24' E 000°33'0 0.0
2013-Feb-23 23:31N 51°24' E 000°33'0 0.0
2013-Feb-23 22:31N 51°24' E 000°33'0 0.0
2013-Feb-23 21:25N 51°24' E 000°33'0 0.0
2013-Feb-23 20:25N 51°24' E 000°33'0 0.0
2013-Feb-23 19:25N 51°24' E 000°33'0 0.0
2013-Feb-23 18:31N 51°24' E 000°33'0 0.0
2013-Feb-23 17:28N 51°24' E 000°33'0 0.0
2013-Feb-23 16:31N 51°24' E 000°33'0 0.0
2013-Feb-23 15:28N 51°24' E 000°33'0 0.0
2013-Feb-23 14:31N 51°24' E 000°33'0 0.0
2013-Feb-23 13:31N 51°24' E 000°33'0 0.0
2013-Feb-23 12:31N 51°24' E 000°33'0 0.0
2013-Feb-23 11:19N 51°24' E 000°33'0 0.0
2013-Feb-23 10:25N 51°24' E 000°33'0 0.0
2013-Feb-23 09:31N 51°24' E 000°33'0 0.0
2013-Feb-23 08:31N 51°24' E 000°33'0 0.0
2013-Feb-23 07:04N 51°24' E 000°33'0 0.0
2013-Feb-23 06:31N 51°24' E 000°33'0 0.0
2013-Feb-23 05:31N 51°24' E 000°33'0 0.0
2013-Feb-23 04:31N 51°24' E 000°33'0 0.0
2013-Feb-23 03:31N 51°24' E 000°33'0 0.0
2013-Feb-23 02:31N 51°24' E 000°33'0 0.0
2013-Feb-23 01:28N 51°24' E 000°33'0 0.0
2013-Feb-23 00:31N 51°24' E 000°33'0 0.0
2013-Feb-22 23:25N 51°24' E 000°33'0 0.0
2013-Feb-22 22:28N 51°24' E 000°33'0 0.0
2013-Feb-22 21:28N 51°24' E 000°33'0 0.0
2013-Feb-22 20:25N 51°24' E 000°33'0 0.0
2013-Feb-22 19:28N 51°24' E 000°33'0 0.0
2013-Feb-22 18:31N 51°24' E 000°33'0 0.0
2013-Feb-22 17:28N 51°24' E 000°33'0 0.0
2013-Feb-22 16:28N 51°24' E 000°33'0 0.0
2013-Feb-22 15:31N 51°24' E 000°33'0 0.0
2013-Feb-22 14:22N 51°24' E 000°33'0 0.0
2013-Feb-22 13:31N 51°24' E 000°33'0 0.0
2013-Feb-22 12:31N 51°24' E 000°33'0 0.0
2013-Feb-22 11:04N 51°24' E 000°33'0 0.0
2013-Feb-22 10:04N 51°24' E 000°33'0 0.0
2013-Feb-22 09:31N 51°24' E 000°33'0 0.0
2013-Feb-22 08:31N 51°24' E 000°33'0 0.0
2013-Feb-22 07:10N 51°24' E 000°33'0 0.0
2013-Feb-22 06:31N 51°24' E 000°33'0 0.0
2013-Feb-22 05:31N 51°24' E 000°33'0 0.0
2013-Feb-22 04:31N 51°24' E 000°33'0 0.0
2013-Feb-22 03:28N 51°24' E 000°33'0 0.0
2013-Feb-22 02:31N 51°24' E 000°33'0 0.0
2013-Feb-22 01:25N 51°24' E 000°33'0 0.0
2013-Feb-22 00:28N 51°24' E 000°33'0 0.0
2013-Feb-21 23:28N 51°24' E 000°33'0 0.0
2013-Feb-21 22:28N 51°24' E 000°33'0 0.0
2013-Feb-21 21:13N 51°24' E 000°33'0 0.0
2013-Feb-21 20:22N 51°24' E 000°33'0 0.0
2013-Feb-21 19:31N 51°24' E 000°33'0 0.0
2013-Feb-21 18:16N 51°24' E 000°33'0 0.0
2013-Feb-21 17:31N 51°24' E 000°33'0 0.0
2013-Feb-21 14:22N 51°24' E 000°33'0 0.0
2013-Feb-21 12:10N 51°24' E 000°33'0 0.0
2013-Feb-21 09:19N 51°24' E 000°33'0 0.0
2013-Feb-20 17:28N 51°24' E 000°33'0 0.0
2013-Feb-20 16:04N 51°24' E 000°33'0 0.0
2013-Feb-20 15:28N 51°24' E 000°33'0 0.0
2013-Feb-20 14:19N 51°24' E 000°33'0 0.0
2013-Feb-20 13:31N 51°24' E 000°33'0 0.0
2013-Feb-20 12:25N 51°24' E 000°33'0 0.0
2013-Feb-20 11:22N 51°24' E 000°33'0 0.0
2013-Feb-20 10:25N 51°24' E 000°33'0 0.0
2013-Feb-20 08:13N 51°24' E 000°33'0 0.0
2013-Feb-20 07:31N 51°24' E 000°33'0 0.0
2013-Feb-20 06:31N 51°24' E 000°33'0 0.0
2013-Feb-20 05:31N 51°24' E 000°33'0 0.0
2013-Feb-20 04:31N 51°24' E 000°33'0 0.0
2013-Feb-20 03:31N 51°24' E 000°33'0 0.0
2013-Feb-20 02:31N 51°24' E 000°33'0 0.0
2013-Feb-20 01:31N 51°24' E 000°33'0 0.0
2013-Feb-20 00:31N 51°24' E 000°33'0 0.0
2013-Feb-19 23:31N 51°24' E 000°33'0 0.0
2013-Feb-19 22:31N 51°24' E 000°33'0 0.0
2013-Feb-19 21:16N 51°24' E 000°33'0 0.0
2013-Feb-19 20:31N 51°24' E 000°33'0 0.0
2013-Feb-19 18:07N 51°24' E 000°33'0 0.0
2013-Feb-19 17:22N 51°24' E 000°33'0 0.0
2013-Feb-19 16:31N 51°24' E 000°33'0 0.0
2013-Feb-19 15:31N 51°24' E 000°33'0 0.0
2013-Feb-19 14:31N 51°24' E 000°33'0 0.0
2013-Feb-19 13:31N 51°24' E 000°33'0 0.0
2013-Feb-19 12:31N 51°24' E 000°33'0 0.0
2013-Feb-19 11:28N 51°24' E 000°33'0 0.0
2013-Feb-19 10:31N 51°24' E 000°33'0 0.0
2013-Feb-19 09:25N 51°24' E 000°33'0 0.0
2013-Feb-19 07:04N 51°24' E 000°33'0 0.0
2013-Feb-19 06:25N 51°24' E 000°33'0 0.0
2013-Feb-19 05:31N 51°24' E 000°33'0 0.0
2013-Feb-19 04:31N 51°24' E 000°33'0 0.0
2013-Feb-19 03:31N 51°24' E 000°33'0 0.0
2013-Feb-19 02:28N 51°24' E 000°33'0 0.0
2013-Feb-19 01:31N 51°24' E 000°33'0 0.0
2013-Feb-19 00:31N 51°24' E 000°33'0 0.0
2013-Feb-18 23:31N 51°24' E 000°33'0 0.0
2013-Feb-18 22:31N 51°24' E 000°33'0 0.0
2013-Feb-18 21:31N 51°24' E 000°33'0 0.0
2013-Feb-18 20:31N 51°24' E 000°33'0 0.0
2013-Feb-18 19:31N 51°24' E 000°33'0 0.0
2013-Feb-18 18:22N 51°24' E 000°33'0 0.0
2013-Feb-18 17:07N 51°24' E 000°33'0 0.0
2013-Feb-18 16:28N 51°24' E 000°33'0 0.0
2013-Feb-18 15:22N 51°24' E 000°33'0 0.0
2013-Feb-18 14:31N 51°24' E 000°33'0 0.0
2013-Feb-18 13:31N 51°24' E 000°33'0 0.0
2013-Feb-18 12:31N 51°24' E 000°33'0 0.0
2013-Feb-18 11:28N 51°24' E 000°33'0 0.0
2013-Feb-18 09:19N 51°24' E 000°33'0 0.0
2013-Feb-18 08:28N 51°24' E 000°33'0 0.0
2013-Feb-18 07:31N 51°24' E 000°33'0 0.0
2013-Feb-18 06:28N 51°24' E 000°33'0 0.0
2013-Feb-18 05:28N 51°24' E 000°33'0 0.0
2013-Feb-18 04:31N 51°24' E 000°33'0 0.0
2013-Feb-18 03:22N 51°24' E 000°33'0 0.0
2013-Feb-18 02:31N 51°24' E 000°33'0 0.0
2013-Feb-18 01:31N 51°24' E 000°33'0 0.0
2013-Feb-18 00:31N 51°24' E 000°33'0 0.0
2013-Feb-17 23:31N 51°24' E 000°33'0 0.0
2013-Feb-17 22:28N 51°24' E 000°33'0 0.0
2013-Feb-17 21:31N 51°24' E 000°33'0 0.0
2013-Feb-17 17:31N 51°24' E 000°33'0 0.0
2013-Feb-17 16:31N 51°24' E 000°33'0 0.0
2013-Feb-17 15:25N 51°24' E 000°33'  
Track history (hours):
 
Tides and Currents Weather Stations Pressure Air Temp Water Temp Dewpoint Dewpoint Depression Visibility Wind Speed Wind Dir Waves Ship Positions

Discovery

Last reported at 2013-Feb-27 14:31 UTC. Time now 2019-Sep-15 12:05 UTC.
Position N 51°06' E 003°44'.
Warning: this ship's position is years out of date!

Length 90.2 m; beam 14 m; draft 5.4 m.

Type: Other ship. MMSI: 233882000.

Date/timePositionNaut miles runAvg speedWind from/ knotsBaromVisibWave heightAir tempDewpointWater temp
2013-Feb-27 14:31N 51°06' E 003°44'1 1.0
2013-Feb-27 13:30N 51°07' E 003°45'7 7.3
2013-Feb-27 12:32N 51°14' E 003°48'6 6.1
2013-Feb-27 11:33N 51°20' E 003°49'3 2.7
2013-Feb-27 10:33N 51°21' E 003°46'9 8.9
2013-Feb-27 09:34N 51°25' E 003°33'1010.1
2013-Feb-27 08:33N 51°24' E 003°17'10 9.5
2013-Feb-27 07:29N 51°21' E 003°01'9 9.6
2013-Feb-27 06:33N 51°21' E 002°47'9 9.4
2013-Feb-27 05:33N 51°22' E 002°32'10 9.6
2013-Feb-27 04:33N 51°19' E 002°17'10 9.5
2013-Feb-27 03:33N 51°22' E 002°03'7 7.4
2013-Feb-27 02:33N 51°29' E 002°02'13 6.2
2013-Feb-27 00:24N 51°41' E 002°09'11 2.3
2013-Feb-26 19:33N 51°34' E 001°56'7 6.4
2013-Feb-26 18:31N 51°31' E 001°46'8 8.0
2013-Feb-26 17:33N 51°28' E 001°35'7 6.4
2013-Feb-26 16:31N 51°28' E 001°24'1313.2
2013-Feb-26 15:33N 51°29' E 001°04'1312.7
2013-Feb-26 14:33N 51°27' E 000°44'7 7.3
2013-Feb-26 13:33N 51°24' E 000°33'0 0.1
2013-Feb-26 12:32N 51°24' E 000°33'0 0.0
2013-Feb-26 06:31N 51°24' E 000°33'0 0.0
2013-Feb-26 05:31N 51°24' E 000°33'0 0.0
2013-Feb-26 04:31N 51°24' E 000°33'0 0.0
2013-Feb-26 03:31N 51°24' E 000°33'0 0.0
2013-Feb-26 02:31N 51°24' E 000°33'0 0.0
2013-Feb-26 01:31N 51°24' E 000°33'0 0.0
2013-Feb-26 00:28N 51°24' E 000°33'0 0.0
2013-Feb-25 23:31N 51°24' E 000°33'0 0.0
2013-Feb-25 22:31N 51°24' E 000°33'0 0.0
2013-Feb-25 19:16N 51°24' E 000°33'0 0.0
2013-Feb-25 17:04N 51°24' E 000°33'0 0.0
2013-Feb-25 16:25N 51°24' E 000°33'0 0.0
2013-Feb-25 15:04N 51°24' E 000°33'0 0.0
2013-Feb-25 14:22N 51°24' E 000°33'0 0.0
2013-Feb-25 13:31N 51°24' E 000°33'0 0.0
2013-Feb-25 12:19N 51°24' E 000°33'0 0.0
2013-Feb-25 11:13N 51°24' E 000°33'0 0.0
2013-Feb-25 10:31N 51°24' E 000°33'0 0.0
2013-Feb-25 09:31N 51°24' E 000°33'0 0.0
2013-Feb-25 08:31N 51°24' E 000°33'0 0.0
2013-Feb-25 06:31N 51°24' E 000°33'0 0.0
2013-Feb-25 05:31N 51°24' E 000°33'0 0.0
2013-Feb-25 04:31N 51°24' E 000°33'0 0.0
2013-Feb-25 03:31N 51°24' E 000°33'0 0.0
2013-Feb-25 02:31N 51°24' E 000°33'0 0.0
2013-Feb-25 01:31N 51°24' E 000°33'0 0.0
2013-Feb-25 00:31N 51°24' E 000°33'0 0.0
2013-Feb-24 23:07N 51°24' E 000°33'0 0.0
2013-Feb-24 22:25N 51°24' E 000°33'0 0.0
2013-Feb-24 19:10N 51°24' E 000°33'0 0.0
2013-Feb-24 18:28N 51°24' E 000°33'0 0.0
2013-Feb-24 17:28N 51°24' E 000°33'0 0.0
2013-Feb-24 16:31N 51°24' E 000°33'0 0.0
2013-Feb-24 15:31N 51°24' E 000°33'0 0.0
2013-Feb-24 14:31N 51°24' E 000°33'0 0.0
2013-Feb-24 13:19N 51°24' E 000°33'0 0.0
2013-Feb-24 12:22N 51°24' E 000°33'0 0.0
2013-Feb-24 10:31N 51°24' E 000°33'0 0.0
2013-Feb-24 09:28N 51°24' E 000°33'0 0.0
2013-Feb-24 08:31N 51°24' E 000°33'0 0.0
2013-Feb-24 07:31N 51°24' E 000°33'0 0.0
2013-Feb-24 06:28N 51°24' E 000°33'0 0.0
2013-Feb-24 05:31N 51°24' E 000°33'0 0.0
2013-Feb-24 04:28N 51°24' E 000°33'0 0.0
2013-Feb-24 03:31N 51°24' E 000°33'0 0.0
2013-Feb-24 02:31N 51°24' E 000°33'0 0.0
2013-Feb-24 01:31N 51°24' E 000°33'0 0.0
2013-Feb-24 00:31N 51°24' E 000°33'0 0.0
2013-Feb-23 23:31N 51°24' E 000°33'0 0.0
2013-Feb-23 22:31N 51°24' E 000°33'0 0.0
2013-Feb-23 21:25N 51°24' E 000°33'0 0.0
2013-Feb-23 20:25N 51°24' E 000°33'0 0.0
2013-Feb-23 19:25N 51°24' E 000°33'0 0.0
2013-Feb-23 18:31N 51°24' E 000°33'0 0.0
2013-Feb-23 17:28N 51°24' E 000°33'0 0.0
2013-Feb-23 16:31N 51°24' E 000°33'0 0.0
2013-Feb-23 15:28N 51°24' E 000°33'0 0.0
2013-Feb-23 14:31N 51°24' E 000°33'0 0.0
2013-Feb-23 13:31N 51°24' E 000°33'0 0.0
2013-Feb-23 12:31N 51°24' E 000°33'0 0.0
2013-Feb-23 11:19N 51°24' E 000°33'0 0.0
2013-Feb-23 10:25N 51°24' E 000°33'0 0.0
2013-Feb-23 09:31N 51°24' E 000°33'0 0.0
2013-Feb-23 08:31N 51°24' E 000°33'0 0.0
2013-Feb-23 07:04N 51°24' E 000°33'0 0.0
2013-Feb-23 06:31N 51°24' E 000°33'0 0.0
2013-Feb-23 05:31N 51°24' E 000°33'0 0.0
2013-Feb-23 04:31N 51°24' E 000°33'0 0.0
2013-Feb-23 03:31N 51°24' E 000°33'0 0.0
2013-Feb-23 02:31N 51°24' E 000°33'0 0.0
2013-Feb-23 01:28N 51°24' E 000°33'0 0.0
2013-Feb-23 00:31N 51°24' E 000°33'0 0.0
2013-Feb-22 23:25N 51°24' E 000°33'0 0.0
2013-Feb-22 22:28N 51°24' E 000°33'0 0.0
2013-Feb-22 21:28N 51°24' E 000°33'0 0.0
2013-Feb-22 20:25N 51°24' E 000°33'0 0.0
2013-Feb-22 19:28N 51°24' E 000°33'0 0.0
2013-Feb-22 18:31N 51°24' E 000°33'0 0.0
2013-Feb-22 17:28N 51°24' E 000°33'0 0.0
2013-Feb-22 16:28N 51°24' E 000°33'0 0.0
2013-Feb-22 15:31N 51°24' E 000°33'0 0.0
2013-Feb-22 14:22N 51°24' E 000°33'0 0.0
2013-Feb-22 13:31N 51°24' E 000°33'0 0.0
2013-Feb-22 12:31N 51°24' E 000°33'0 0.0
2013-Feb-22 11:04N 51°24' E 000°33'0 0.0
2013-Feb-22 10:04N 51°24' E 000°33'0 0.0
2013-Feb-22 09:31N 51°24' E 000°33'0 0.0
2013-Feb-22 08:31N 51°24' E 000°33'0 0.0
2013-Feb-22 07:10N 51°24' E 000°33'0 0.0
2013-Feb-22 06:31N 51°24' E 000°33'0 0.0
2013-Feb-22 05:31N 51°24' E 000°33'0 0.0
2013-Feb-22 04:31N 51°24' E 000°33'0 0.0
2013-Feb-22 03:28N 51°24' E 000°33'0 0.0
2013-Feb-22 02:31N 51°24' E 000°33'0 0.0
2013-Feb-22 01:25N 51°24' E 000°33'0 0.0
2013-Feb-22 00:28N 51°24' E 000°33'0 0.0
2013-Feb-21 23:28N 51°24' E 000°33'0 0.0
2013-Feb-21 22:28N 51°24' E 000°33'0 0.0
2013-Feb-21 21:13N 51°24' E 000°33'0 0.0
2013-Feb-21 20:22N 51°24' E 000°33'0 0.0
2013-Feb-21 19:31N 51°24' E 000°33'0 0.0
2013-Feb-21 18:16N 51°24' E 000°33'0 0.0
2013-Feb-21 17:31N 51°24' E 000°33'0 0.0
2013-Feb-21 14:22N 51°24' E 000°33'0 0.0
2013-Feb-21 12:10N 51°24' E 000°33'0 0.0
2013-Feb-21 09:19N 51°24' E 000°33'0 0.0
2013-Feb-20 17:28N 51°24' E 000°33'0 0.0
2013-Feb-20 16:04N 51°24' E 000°33'0 0.0
2013-Feb-20 15:28N 51°24' E 000°33'0 0.0
2013-Feb-20 14:19N 51°24' E 000°33'0 0.0
2013-Feb-20 13:31N 51°24' E 000°33'0 0.0
2013-Feb-20 12:25N 51°24' E 000°33'0 0.0
2013-Feb-20 11:22N 51°24' E 000°33'0 0.0
2013-Feb-20 10:25N 51°24' E 000°33'0 0.0
2013-Feb-20 08:13N 51°24' E 000°33'0 0.0
2013-Feb-20 07:31N 51°24' E 000°33'0 0.0
2013-Feb-20 06:31N 51°24' E 000°33'0 0.0
2013-Feb-20 05:31N 51°24' E 000°33'0 0.0
2013-Feb-20 04:31N 51°24' E 000°33'0 0.0
2013-Feb-20 03:31N 51°24' E 000°33'0 0.0
2013-Feb-20 02:31N 51°24' E 000°33'0 0.0
2013-Feb-20 01:31N 51°24' E 000°33'0 0.0
2013-Feb-20 00:31N 51°24' E 000°33'0 0.0
2013-Feb-19 23:31N 51°24' E 000°33'0 0.0
2013-Feb-19 22:31N 51°24' E 000°33'0 0.0
2013-Feb-19 21:16N 51°24' E 000°33'0 0.0
2013-Feb-19 20:31N 51°24' E 000°33'0 0.0
2013-Feb-19 18:07N 51°24' E 000°33'0 0.0
2013-Feb-19 17:22N 51°24' E 000°33'0 0.0
2013-Feb-19 16:31N 51°24' E 000°33'0 0.0
2013-Feb-19 15:31N 51°24' E 000°33'0 0.0
2013-Feb-19 14:31N 51°24' E 000°33'0 0.0
2013-Feb-19 13:31N 51°24' E 000°33'0 0.0
2013-Feb-19 12:31N 51°24' E 000°33'0 0.0
2013-Feb-19 11:28N 51°24' E 000°33'0 0.0
2013-Feb-19 10:31N 51°24' E 000°33'0 0.0
2013-Feb-19 09:25N 51°24' E 000°33'0 0.0
2013-Feb-19 07:04N 51°24' E 000°33'0 0.0
2013-Feb-19 06:25N 51°24' E 000°33'0 0.0
2013-Feb-19 05:31N 51°24' E 000°33'0 0.0
2013-Feb-19 04:31N 51°24' E 000°33'0 0.0
2013-Feb-19 03:31N 51°24' E 000°33'0 0.0
2013-Feb-19 02:28N 51°24' E 000°33'0 0.0
2013-Feb-19 01:31N 51°24' E 000°33'0 0.0
2013-Feb-19 00:31N 51°24' E 000°33'0 0.0
2013-Feb-18 23:31N 51°24' E 000°33'0 0.0
2013-Feb-18 22:31N 51°24' E 000°33'0 0.0
2013-Feb-18 21:31N 51°24' E 000°33'0 0.0
2013-Feb-18 20:31N 51°24' E 000°33'0 0.0
2013-Feb-18 19:31N 51°24' E 000°33'0 0.0
2013-Feb-18 18:22N 51°24' E 000°33'0 0.0
2013-Feb-18 17:07N 51°24' E 000°33'0 0.0
2013-Feb-18 16:28N 51°24' E 000°33'0 0.0
2013-Feb-18 15:22N 51°24' E 000°33'0 0.0
2013-Feb-18 14:31N 51°24' E 000°33'0 0.0
2013-Feb-18 13:31N 51°24' E 000°33'0 0.0
2013-Feb-18 12:31N 51°24' E 000°33'0 0.0
2013-Feb-18 11:28N 51°24' E 000°33'0 0.0
2013-Feb-18 09:19N 51°24' E 000°33'0 0.0
2013-Feb-18 08:28N 51°24' E 000°33'0 0.0
2013-Feb-18 07:31N 51°24' E 000°33'0 0.0
2013-Feb-18 06:28N 51°24' E 000°33'0 0.0
2013-Feb-18 05:28N 51°24' E 000°33'0 0.0
2013-Feb-18 04:31N 51°24' E 000°33'0 0.0
2013-Feb-18 03:22N 51°24' E 000°33'0 0.0
2013-Feb-18 02:31N 51°24' E 000°33'0 0.0
2013-Feb-18 01:31N 51°24' E 000°33'0 0.0
2013-Feb-18 00:31N 51°24' E 000°33'0 0.0
2013-Feb-17 23:31N 51°24' E 000°33'0 0.0
2013-Feb-17 22:28N 51°24' E 000°33'0 0.0
2013-Feb-17 21:31N 51°24' E 000°33'0 0.0
2013-Feb-17 17:31N 51°24' E 000°33'0 0.0
2013-Feb-17 16:31N 51°24' E 000°33'0 0.0
2013-Feb-17 15:25N 51°24' E 000°33'  

Dump ship's entire track history